sensor_id;sensor_type;location;lat;lon;timestamp;temperature;humidity
13850;DHT22;6995;52.618;13.488;2023-07-09T00:01:04;19.80;1.00
13850;DHT22;6995;52.618;13.488;2023-07-09T00:03:30;19.80;1.00
13850;DHT22;6995;52.618;13.488;2023-07-09T00:05:56;19.70;1.00
13850;DHT22;6995;52.618;13.488;2023-07-09T00:08:30;19.60;1.00
13850;DHT22;6995;52.618;13.488;2023-07-09T00:10:57;19.60;1.00
13850;DHT22;6995;52.618;13.488;2023-07-09T00:13:24;19.50;1.00
13850;DHT22;6995;52.618;13.488;2023-07-09T00:15:51;19.50;1.00
13850;DHT22;6995;52.618;13.488;2023-07-09T00:18:17;19.50;1.00
13850;DHT22;6995;52.618;13.488;2023-07-09T00:20:43;19.40;1.00
13850;DHT22;6995;52.618;13.488;2023-07-09T00:23:10;19.40;1.00
13850;DHT22;6995;52.618;13.488;2023-07-09T00:25:42;19.30;1.00
13850;DHT22;6995;52.618;13.488;2023-07-09T00:28:19;19.30;1.00
13850;DHT22;6995;52.618;13.488;2023-07-09T00:30:46;19.30;1.00
13850;DHT22;6995;52.618;13.488;2023-07-09T00:33:13;19.30;1.00
13850;DHT22;6995;52.618;13.488;2023-07-09T00:35:45;19.30;1.00
13850;DHT22;6995;52.618;13.488;2023-07-09T00:38:19;19.20;1.00
13850;DHT22;6995;52.618;13.488;2023-07-09T00:41:12;19.20;1.00
13850;DHT22;6995;52.618;13.488;2023-07-09T00:43:46;19.10;1.00
13850;DHT22;6995;52.618;13.488;2023-07-09T00:49:02;19.10;1.00
13850;DHT22;6995;52.618;13.488;2023-07-09T00:51:39;19.00;1.00
13850;DHT22;6995;52.618;13.488;2023-07-09T00:56:59;19.00;1.00
13850;DHT22;6995;52.618;13.488;2023-07-09T00:59:27;19.00;1.00
13850;DHT22;6995;52.618;13.488;2023-07-09T01:01:57;19.00;1.00
13850;DHT22;6995;52.618;13.488;2023-07-09T01:04:25;18.90;1.00
13850;DHT22;6995;52.618;13.488;2023-07-09T01:06:53;18.90;1.00
13850;DHT22;6995;52.618;13.488;2023-07-09T01:09:21;18.90;1.00
13850;DHT22;6995;52.618;13.488;2023-07-09T01:11:47;18.80;1.00
13850;DHT22;6995;52.618;13.488;2023-07-09T01:14:16;18.80;1.00
13850;DHT22;6995;52.618;13.488;2023-07-09T01:16:48;18.80;1.00
13850;DHT22;6995;52.618;13.488;2023-07-09T01:19:14;18.80;1.00
13850;DHT22;6995;52.618;13.488;2023-07-09T01:21:42;18.80;1.00
13850;DHT22;6995;52.618;13.488;2023-07-09T01:24:45;18.80;1.00
13850;DHT22;6995;52.618;13.488;2023-07-09T01:27:02;18.80;1.00
13850;DHT22;6995;52.618;13.488;2023-07-09T01:29:33;18.80;1.00
13850;DHT22;6995;52.618;13.488;2023-07-09T01:32:00;18.90;1.00
13850;DHT22;6995;52.618;13.488;2023-07-09T01:34:25;18.80;1.00
13850;DHT22;6995;52.618;13.488;2023-07-09T01:36:51;18.80;1.00
13850;DHT22;6995;52.618;13.488;2023-07-09T01:39:17;18.80;1.00
13850;DHT22;6995;52.618;13.488;2023-07-09T01:41:44;18.80;1.00
13850;DHT22;6995;52.618;13.488;2023-07-09T01:44:11;18.80;1.00
13850;DHT22;6995;52.618;13.488;2023-07-09T01:46:37;18.70;1.00
13850;DHT22;6995;52.618;13.488;2023-07-09T01:49:02;18.70;1.00
13850;DHT22;6995;52.618;13.488;2023-07-09T01:51:29;18.70;1.00
13850;DHT22;6995;52.618;13.488;2023-07-09T01:53:54;18.60;1.00
13850;DHT22;6995;52.618;13.488;2023-07-09T01:56:20;18.50;1.00
13850;DHT22;6995;52.618;13.488;2023-07-09T01:58:46;18.40;1.00
13850;DHT22;6995;52.618;13.488;2023-07-09T02:01:13;18.40;1.00
13850;DHT22;6995;52.618;13.488;2023-07-09T02:03:40;18.40;1.00
13850;DHT22;6995;52.618;13.488;2023-07-09T02:06:06;18.40;1.00
13850;DHT22;6995;52.618;13.488;2023-07-09T02:08:35;18.40;1.00
13850;DHT22;6995;52.618;13.488;2023-07-09T02:11:01;18.30;1.00
13850;DHT22;6995;52.618;13.488;2023-07-09T02:13:27;18.30;1.00
13850;DHT22;6995;52.618;13.488;2023-07-09T02:15:52;18.30;1.00
13850;DHT22;6995;52.618;13.488;2023-07-09T02:18:18;18.20;1.00
13850;DHT22;6995;52.618;13.488;2023-07-09T02:20:46;18.20;1.00
13850;DHT22;6995;52.618;13.488;2023-07-09T02:23:11;18.20;1.00
13850;DHT22;6995;52.618;13.488;2023-07-09T02:25:37;18.20;1.00
13850;DHT22;6995;52.618;13.488;2023-07-09T02:28:03;18.20;1.00
13850;DHT22;6995;52.618;13.488;2023-07-09T02:30:29;18.20;1.00
13850;DHT22;6995;52.618;13.488;2023-07-09T02:32:54;18.20;1.00
13850;DHT22;6995;52.618;13.488;2023-07-09T02:35:21;18.20;1.00
13850;DHT22;6995;52.618;13.488;2023-07-09T02:37:46;18.20;1.00
13850;DHT22;6995;52.618;13.488;2023-07-09T02:40:13;18.10;1.00
13850;DHT22;6995;52.618;13.488;2023-07-09T02:42:38;18.20;1.00
13850;DHT22;6995;52.618;13.488;2023-07-09T02:45:04;18.10;1.00
13850;DHT22;6995;52.618;13.488;2023-07-09T02:47:30;18.10;1.00
13850;DHT22;6995;52.618;13.488;2023-07-09T02:49:56;18.10;1.00
13850;DHT22;6995;52.618;13.488;2023-07-09T02:52:22;18.10;1.00
13850;DHT22;6995;52.618;13.488;2023-07-09T02:54:47;18.10;1.00
13850;DHT22;6995;52.618;13.488;2023-07-09T02:57:13;18.10;1.00
13850;DHT22;6995;52.618;13.488;2023-07-09T02:59:39;18.10;1.00
13850;DHT22;6995;52.618;13.488;2023-07-09T03:02:05;18.10;1.00
13850;DHT22;6995;52.618;13.488;2023-07-09T03:04:31;18.10;1.00
13850;DHT22;6995;52.618;13.488;2023-07-09T03:06:57;18.10;1.00
13850;DHT22;6995;52.618;13.488;2023-07-09T03:09:23;18.10;1.00
13850;DHT22;6995;52.618;13.488;2023-07-09T03:11:48;18.10;1.00
13850;DHT22;6995;52.618;13.488;2023-07-09T03:14:14;18.10;1.00
13850;DHT22;6995;52.618;13.488;2023-07-09T03:16:40;18.00;1.00
13850;DHT22;6995;52.618;13.488;2023-07-09T03:19:06;18.00;1.00
13850;DHT22;6995;52.618;13.488;2023-07-09T03:21:32;18.00;1.00
13850;DHT22;6995;52.618;13.488;2023-07-09T03:23:58;17.90;1.00
13850;DHT22;6995;52.618;13.488;2023-07-09T03:26:24;18.00;1.00
13850;DHT22;6995;52.618;13.488;2023-07-09T03:28:51;18.00;1.00
13850;DHT22;6995;52.618;13.488;2023-07-09T03:31:17;18.00;1.00
13850;DHT22;6995;52.618;13.488;2023-07-09T03:33:43;18.00;1.00
13850;DHT22;6995;52.618;13.488;2023-07-09T03:36:08;18.00;1.00
13850;DHT22;6995;52.618;13.488;2023-07-09T03:38:34;18.10;1.00
13850;DHT22;6995;52.618;13.488;2023-07-09T03:41:00;18.10;1.00
13850;DHT22;6995;52.618;13.488;2023-07-09T03:43:25;18.10;1.00
13850;DHT22;6995;52.618;13.488;2023-07-09T03:45:51;18.20;1.00
13850;DHT22;6995;52.618;13.488;2023-07-09T03:48:18;18.20;1.00
13850;DHT22;6995;52.618;13.488;2023-07-09T03:50:46;18.20;1.00
13850;DHT22;6995;52.618;13.488;2023-07-09T03:53:12;18.20;1.00
13850;DHT22;6995;52.618;13.488;2023-07-09T03:55:38;18.30;1.00
13850;DHT22;6995;52.618;13.488;2023-07-09T03:58:04;18.30;1.00
13850;DHT22;6995;52.618;13.488;2023-07-09T04:00:31;18.30;1.00
13850;DHT22;6995;52.618;13.488;2023-07-09T04:02:57;18.40;1.00
13850;DHT22;6995;52.618;13.488;2023-07-09T04:05:23;18.50;1.00
13850;DHT22;6995;52.618;13.488;2023-07-09T04:07:49;18.50;1.00
13850;DHT22;6995;52.618;13.488;2023-07-09T04:10:15;18.50;1.00
13850;DHT22;6995;52.618;13.488;2023-07-09T04:12:41;18.60;1.00
13850;DHT22;6995;52.618;13.488;2023-07-09T04:15:07;18.70;1.00
13850;DHT22;6995;52.618;13.488;2023-07-09T04:17:34;18.80;1.00
13850;DHT22;6995;52.618;13.488;2023-07-09T04:19:59;18.90;1.00
13850;DHT22;6995;52.618;13.488;2023-07-09T04:22:25;19.10;1.00
13850;DHT22;6995;52.618;13.488;2023-07-09T04:24:51;19.20;1.00
13850;DHT22;6995;52.618;13.488;2023-07-09T04:27:18;19.20;1.00
13850;DHT22;6995;52.618;13.488;2023-07-09T04:29:44;19.30;1.00
13850;DHT22;6995;52.618;13.488;2023-07-09T04:32:14;19.40;1.00
13850;DHT22;6995;52.618;13.488;2023-07-09T04:34:40;19.50;1.00
13850;DHT22;6995;52.618;13.488;2023-07-09T04:37:07;19.50;1.00
13850;DHT22;6995;52.618;13.488;2023-07-09T04:39:33;19.50;1.00
13850;DHT22;6995;52.618;13.488;2023-07-09T04:41:59;19.60;1.00
13850;DHT22;6995;52.618;13.488;2023-07-09T04:44:24;19.70;1.00
13850;DHT22;6995;52.618;13.488;2023-07-09T04:46:50;19.90;1.00
13850;DHT22;6995;52.618;13.488;2023-07-09T04:49:16;20.10;1.00
13850;DHT22;6995;52.618;13.488;2023-07-09T04:51:42;20.30;1.00
13850;DHT22;6995;52.618;13.488;2023-07-09T04:54:07;20.30;1.00
13850;DHT22;6995;52.618;13.488;2023-07-09T04:56:33;20.40;1.00
13850;DHT22;6995;52.618;13.488;2023-07-09T04:58:59;20.60;1.00
13850;DHT22;6995;52.618;13.488;2023-07-09T05:01:24;20.70;1.00
13850;DHT22;6995;52.618;13.488;2023-07-09T05:03:50;20.80;1.00
13850;DHT22;6995;52.618;13.488;2023-07-09T05:06:16;20.90;1.00
13850;DHT22;6995;52.618;13.488;2023-07-09T05:08:42;21.00;1.00
13850;DHT22;6995;52.618;13.488;2023-07-09T05:11:08;21.10;1.00
13850;DHT22;6995;52.618;13.488;2023-07-09T05:13:35;21.30;1.00
13850;DHT22;6995;52.618;13.488;2023-07-09T05:16:01;21.40;1.00
13850;DHT22;6995;52.618;13.488;2023-07-09T05:18:26;21.50;1.00
13850;DHT22;6995;52.618;13.488;2023-07-09T05:20:52;21.70;1.00
13850;DHT22;6995;52.618;13.488;2023-07-09T05:23:18;21.70;1.00
13850;DHT22;6995;52.618;13.488;2023-07-09T05:25:44;21.70;1.00
13850;DHT22;6995;52.618;13.488;2023-07-09T05:28:09;21.80;1.00
13850;DHT22;6995;52.618;13.488;2023-07-09T05:30:35;21.80;1.00
13850;DHT22;6995;52.618;13.488;2023-07-09T05:33:00;22.00;1.00
13850;DHT22;6995;52.618;13.488;2023-07-09T05:35:27;22.10;1.00
13850;DHT22;6995;52.618;13.488;2023-07-09T05:37:53;22.30;1.00
13850;DHT22;6995;52.618;13.488;2023-07-09T05:40:20;22.30;1.00
13850;DHT22;6995;52.618;13.488;2023-07-09T05:42:46;22.50;1.00
13850;DHT22;6995;52.618;13.488;2023-07-09T05:45:11;22.50;1.00
13850;DHT22;6995;52.618;13.488;2023-07-09T05:47:37;22.60;1.00
13850;DHT22;6995;52.618;13.488;2023-07-09T05:50:03;22.70;1.00
13850;DHT22;6995;52.618;13.488;2023-07-09T05:52:29;22.80;1.00
13850;DHT22;6995;52.618;13.488;2023-07-09T05:54:55;22.90;1.00
13850;DHT22;6995;52.618;13.488;2023-07-09T05:57:22;23.00;1.00
13850;DHT22;6995;52.618;13.488;2023-07-09T05:59:47;23.10;1.00
13850;DHT22;6995;52.618;13.488;2023-07-09T06:02:15;23.20;1.00
13850;DHT22;6995;52.618;13.488;2023-07-09T06:04:42;23.30;1.00
13850;DHT22;6995;52.618;13.488;2023-07-09T06:07:08;23.40;1.00
13850;DHT22;6995;52.618;13.488;2023-07-09T06:09:34;23.60;1.00
13850;DHT22;6995;52.618;13.488;2023-07-09T06:12:00;23.60;1.00
13850;DHT22;6995;52.618;13.488;2023-07-09T06:14:26;23.70;1.00
13850;DHT22;6995;52.618;13.488;2023-07-09T06:16:52;23.90;1.00
13850;DHT22;6995;52.618;13.488;2023-07-09T06:19:17;24.00;1.00
13850;DHT22;6995;52.618;13.488;2023-07-09T06:21:43;24.20;1.00
13850;DHT22;6995;52.618;13.488;2023-07-09T06:24:09;24.30;1.00
13850;DHT22;6995;52.618;13.488;2023-07-09T06:26:35;24.50;1.00
13850;DHT22;6995;52.618;13.488;2023-07-09T06:29:01;24.60;1.00
13850;DHT22;6995;52.618;13.488;2023-07-09T06:31:27;24.70;1.00
13850;DHT22;6995;52.618;13.488;2023-07-09T06:33:53;24.90;1.00
13850;DHT22;6995;52.618;13.488;2023-07-09T06:36:19;25.00;1.00
13850;DHT22;6995;52.618;13.488;2023-07-09T06:38:45;25.10;1.00
13850;DHT22;6995;52.618;13.488;2023-07-09T06:41:13;25.20;1.00
13850;DHT22;6995;52.618;13.488;2023-07-09T06:43:39;25.40;1.00
13850;DHT22;6995;52.618;13.488;2023-07-09T06:46:06;25.40;1.00
13850;DHT22;6995;52.618;13.488;2023-07-09T06:48:32;25.50;1.00
13850;DHT22;6995;52.618;13.488;2023-07-09T06:50:59;25.60;1.00
13850;DHT22;6995;52.618;13.488;2023-07-09T06:53:26;25.80;1.00
13850;DHT22;6995;52.618;13.488;2023-07-09T06:55:52;25.90;1.00
13850;DHT22;6995;52.618;13.488;2023-07-09T06:58:25;26.00;1.00
13850;DHT22;6995;52.618;13.488;2023-07-09T07:00:51;26.10;1.00
13850;DHT22;6995;52.618;13.488;2023-07-09T07:03:17;26.20;1.00
13850;DHT22;6995;52.618;13.488;2023-07-09T07:05:53;26.20;1.00
13850;DHT22;6995;52.618;13.488;2023-07-09T07:08:21;26.30;1.00
13850;DHT22;6995;52.618;13.488;2023-07-09T07:10:49;26.40;1.00
13850;DHT22;6995;52.618;13.488;2023-07-09T07:13:14;26.70;1.00
13850;DHT22;6995;52.618;13.488;2023-07-09T07:15:41;26.80;1.00
13850;DHT22;6995;52.618;13.488;2023-07-09T07:18:07;26.90;1.00
13850;DHT22;6995;52.618;13.488;2023-07-09T07:20:33;26.80;1.00
13850;DHT22;6995;52.618;13.488;2023-07-09T07:22:59;27.00;1.00
13850;DHT22;6995;52.618;13.488;2023-07-09T07:25:25;27.20;1.00
13850;DHT22;6995;52.618;13.488;2023-07-09T07:27:51;27.30;1.00
13850;DHT22;6995;52.618;13.488;2023-07-09T07:30:17;27.20;1.00
13850;DHT22;6995;52.618;13.488;2023-07-09T07:32:47;27.20;1.00
13850;DHT22;6995;52.618;13.488;2023-07-09T07:35:14;27.30;1.00
13850;DHT22;6995;52.618;13.488;2023-07-09T07:37:41;27.50;1.00
13850;DHT22;6995;52.618;13.488;2023-07-09T07:40:08;27.60;1.00
13850;DHT22;6995;52.618;13.488;2023-07-09T07:42:33;27.80;1.00
13850;DHT22;6995;52.618;13.488;2023-07-09T07:44:59;28.00;1.00
13850;DHT22;6995;52.618;13.488;2023-07-09T07:47:25;27.90;1.00
13850;DHT22;6995;52.618;13.488;2023-07-09T07:49:53;27.80;1.00
13850;DHT22;6995;52.618;13.488;2023-07-09T07:52:19;27.70;1.00
13850;DHT22;6995;52.618;13.488;2023-07-09T07:54:45;27.70;1.00
13850;DHT22;6995;52.618;13.488;2023-07-09T07:57:11;27.70;1.00
13850;DHT22;6995;52.618;13.488;2023-07-09T07:59:37;27.70;1.00
13850;DHT22;6995;52.618;13.488;2023-07-09T08:02:03;27.80;1.00
13850;DHT22;6995;52.618;13.488;2023-07-09T08:04:29;28.20;1.00
13850;DHT22;6995;52.618;13.488;2023-07-09T08:06:55;28.20;1.00
13850;DHT22;6995;52.618;13.488;2023-07-09T08:09:21;28.10;1.00
13850;DHT22;6995;52.618;13.488;2023-07-09T08:11:46;28.10;1.00
13850;DHT22;6995;52.618;13.488;2023-07-09T08:14:12;28.30;1.00
13850;DHT22;6995;52.618;13.488;2023-07-09T08:16:38;28.30;1.00
13850;DHT22;6995;52.618;13.488;2023-07-09T08:19:04;28.30;1.00
13850;DHT22;6995;52.618;13.488;2023-07-09T08:21:30;28.30;1.00
13850;DHT22;6995;52.618;13.488;2023-07-09T08:23:56;28.40;1.00
13850;DHT22;6995;52.618;13.488;2023-07-09T08:26:22;28.60;1.00
13850;DHT22;6995;52.618;13.488;2023-07-09T08:28:49;28.80;1.00
13850;DHT22;6995;52.618;13.488;2023-07-09T08:31:15;28.80;1.00
13850;DHT22;6995;52.618;13.488;2023-07-09T08:33:41;28.80;1.00
13850;DHT22;6995;52.618;13.488;2023-07-09T08:36:07;28.80;1.00
13850;DHT22;6995;52.618;13.488;2023-07-09T08:38:32;28.70;1.00
13850;DHT22;6995;52.618;13.488;2023-07-09T08:41:09;28.60;1.00
13850;DHT22;6995;52.618;13.488;2023-07-09T08:47:03;28.30;1.00
13850;DHT22;6995;52.618;13.488;2023-07-09T08:49:45;28.40;1.00
13850;DHT22;6995;52.618;13.488;2023-07-09T08:52:30;28.40;1.00
13850;DHT22;6995;52.618;13.488;2023-07-09T08:55:01;28.40;1.00
13850;DHT22;6995;52.618;13.488;2023-07-09T08:57:37;28.30;1.00
13850;DHT22;6995;52.618;13.488;2023-07-09T09:00:28;28.30;1.00
13850;DHT22;6995;52.618;13.488;2023-07-09T09:05:59;28.30;1.00
13850;DHT22;6995;52.618;13.488;2023-07-09T09:11:34;28.40;1.00
13850;DHT22;6995;52.618;13.488;2023-07-09T09:14:16;28.30;1.00
13850;DHT22;6995;52.618;13.488;2023-07-09T09:16:44;28.30;1.00
13850;DHT22;6995;52.618;13.488;2023-07-09T09:19:23;28.30;1.00
13850;DHT22;6995;52.618;13.488;2023-07-09T09:21:52;28.30;1.00
13850;DHT22;6995;52.618;13.488;2023-07-09T09:24:31;28.20;1.00
13850;DHT22;6995;52.618;13.488;2023-07-09T09:27:00;28.30;1.00
13850;DHT22;6995;52.618;13.488;2023-07-09T09:29:26;28.40;1.00
13850;DHT22;6995;52.618;13.488;2023-07-09T09:31:54;28.50;1.00
13850;DHT22;6995;52.618;13.488;2023-07-09T09:34:31;28.60;1.00
13850;DHT22;6995;52.618;13.488;2023-07-09T09:36:58;28.80;1.00
13850;DHT22;6995;52.618;13.488;2023-07-09T09:39:25;28.80;1.00
13850;DHT22;6995;52.618;13.488;2023-07-09T09:41:56;28.90;1.00
13850;DHT22;6995;52.618;13.488;2023-07-09T09:44:27;28.90;1.00
13850;DHT22;6995;52.618;13.488;2023-07-09T09:46:56;28.90;1.00
13850;DHT22;6995;52.618;13.488;2023-07-09T09:49:22;28.90;1.00
13850;DHT22;6995;52.618;13.488;2023-07-09T09:51:47;28.90;1.00
13850;DHT22;6995;52.618;13.488;2023-07-09T09:54:21;28.90;1.00
13850;DHT22;6995;52.618;13.488;2023-07-09T09:56:50;29.00;1.00
13850;DHT22;6995;52.618;13.488;2023-07-09T09:59:21;29.10;1.00
13850;DHT22;6995;52.618;13.488;2023-07-09T10:01:47;29.20;1.00
13850;DHT22;6995;52.618;13.488;2023-07-09T10:04:21;29.20;1.00
13850;DHT22;6995;52.618;13.488;2023-07-09T10:06:51;29.20;1.00
13850;DHT22;6995;52.618;13.488;2023-07-09T10:12:36;29.20;1.00
13850;DHT22;6995;52.618;13.488;2023-07-09T10:18:01;29.40;1.00
13850;DHT22;6995;52.618;13.488;2023-07-09T10:23:35;29.40;1.00
13850;DHT22;6995;52.618;13.488;2023-07-09T10:26:13;29.40;1.00
13850;DHT22;6995;52.618;13.488;2023-07-09T10:39:57;29.90;1.00
13850;DHT22;6995;52.618;13.488;2023-07-09T10:42:35;30.00;1.00
13850;DHT22;6995;52.618;13.488;2023-07-09T10:45:15;30.00;1.00
13850;DHT22;6995;52.618;13.488;2023-07-09T10:47:48;30.00;1.00
13850;DHT22;6995;52.618;13.488;2023-07-09T10:50:18;30.00;1.00
13850;DHT22;6995;52.618;13.488;2023-07-09T10:52:50;29.90;1.00
13850;DHT22;6995;52.618;13.488;2023-07-09T10:55:24;29.90;1.00
13850;DHT22;6995;52.618;13.488;2023-07-09T10:58:04;30.10;1.00
13850;DHT22;6995;52.618;13.488;2023-07-09T11:00:39;30.20;1.00
13850;DHT22;6995;52.618;13.488;2023-07-09T11:03:42;30.40;1.00
13850;DHT22;6995;52.618;13.488;2023-07-09T11:06:34;30.50;1.00
13850;DHT22;6995;52.618;13.488;2023-07-09T11:09:02;30.50;1.00
13850;DHT22;6995;52.618;13.488;2023-07-09T11:11:34;30.50;1.00
13850;DHT22;6995;52.618;13.488;2023-07-09T11:14:04;30.50;1.00
13850;DHT22;6995;52.618;13.488;2023-07-09T11:16:39;30.50;1.00
13850;DHT22;6995;52.618;13.488;2023-07-09T11:19:05;30.60;1.00
13850;DHT22;6995;52.618;13.488;2023-07-09T11:21:44;30.80;1.00
13850;DHT22;6995;52.618;13.488;2023-07-09T11:24:35;30.80;1.00
13850;DHT22;6995;52.618;13.488;2023-07-09T11:27:01;31.00;1.00
13850;DHT22;6995;52.618;13.488;2023-07-09T11:29:28;31.20;1.00
13850;DHT22;6995;52.618;13.488;2023-07-09T11:31:54;31.20;1.00
13850;DHT22;6995;52.618;13.488;2023-07-09T11:34:27;31.20;1.00
13850;DHT22;6995;52.618;13.488;2023-07-09T11:37:01;31.40;1.00
13850;DHT22;6995;52.618;13.488;2023-07-09T11:42:02;31.40;1.00
13850;DHT22;6995;52.618;13.488;2023-07-09T11:44:30;31.70;1.00
13850;DHT22;6995;52.618;13.488;2023-07-09T11:52:20;32.00;1.00
13850;DHT22;6995;52.618;13.488;2023-07-09T11:54:49;32.10;1.00
13850;DHT22;6995;52.618;13.488;2023-07-09T11:57:16;32.30;1.00
13850;DHT22;6995;52.618;13.488;2023-07-09T11:59:43;32.20;1.00
13850;DHT22;6995;52.618;13.488;2023-07-09T12:02:16;32.40;1.00
13850;DHT22;6995;52.618;13.488;2023-07-09T12:04:43;32.60;1.00
13850;DHT22;6995;52.618;13.488;2023-07-09T12:07:13;32.90;1.00
13850;DHT22;6995;52.618;13.488;2023-07-09T12:09:43;33.20;1.00
13850;DHT22;6995;52.618;13.488;2023-07-09T12:12:25;33.60;1.00
13850;DHT22;6995;52.618;13.488;2023-07-09T12:14:51;34.00;1.00
13850;DHT22;6995;52.618;13.488;2023-07-09T12:17:17;33.70;1.00
13850;DHT22;6995;52.618;13.488;2023-07-09T12:19:43;33.60;1.00
13850;DHT22;6995;52.618;13.488;2023-07-09T12:22:21;33.50;1.00
13850;DHT22;6995;52.618;13.488;2023-07-09T12:24:48;33.60;1.00
13850;DHT22;6995;52.618;13.488;2023-07-09T12:27:22;33.60;1.00
13850;DHT22;6995;52.618;13.488;2023-07-09T12:29:51;33.80;1.00
13850;DHT22;6995;52.618;13.488;2023-07-09T12:32:17;34.10;1.00
13850;DHT22;6995;52.618;13.488;2023-07-09T12:34:49;34.80;1.00
13850;DHT22;6995;52.618;13.488;2023-07-09T12:37:16;35.60;1.00
13850;DHT22;6995;52.618;13.488;2023-07-09T12:39:42;35.60;1.00
13850;DHT22;6995;52.618;13.488;2023-07-09T12:42:16;35.50;1.00
13850;DHT22;6995;52.618;13.488;2023-07-09T12:44:42;35.90;1.00
13850;DHT22;6995;52.618;13.488;2023-07-09T12:47:15;36.30;1.00
13850;DHT22;6995;52.618;13.488;2023-07-09T12:49:43;36.70;1.00
13850;DHT22;6995;52.618;13.488;2023-07-09T12:52:23;37.40;1.00
13850;DHT22;6995;52.618;13.488;2023-07-09T12:55:01;37.70;1.00
13850;DHT22;6995;52.618;13.488;2023-07-09T12:57:29;37.30;1.00
13850;DHT22;6995;52.618;13.488;2023-07-09T12:59:56;37.10;1.00
13850;DHT22;6995;52.618;13.488;2023-07-09T13:02:24;37.00;1.00
13850;DHT22;6995;52.618;13.488;2023-07-09T13:05:00;37.00;1.00
13850;DHT22;6995;52.618;13.488;2023-07-09T13:07:31;37.30;1.00
13850;DHT22;6995;52.618;13.488;2023-07-09T13:12:52;38.40;1.00
13850;DHT22;6995;52.618;13.488;2023-07-09T13:18:12;38.70;1.00
13850;DHT22;6995;52.618;13.488;2023-07-09T13:20:40;38.50;1.00
13850;DHT22;6995;52.618;13.488;2023-07-09T13:23:22;38.80;1.00
13850;DHT22;6995;52.618;13.488;2023-07-09T13:25:49;39.00;1.00
13850;DHT22;6995;52.618;13.488;2023-07-09T13:28:27;38.60;1.00
13850;DHT22;6995;52.618;13.488;2023-07-09T13:31:04;38.80;1.00
13850;DHT22;6995;52.618;13.488;2023-07-09T13:33:37;38.80;1.00
13850;DHT22;6995;52.618;13.488;2023-07-09T13:36:04;38.20;1.00
13850;DHT22;6995;52.618;13.488;2023-07-09T13:38:39;38.60;1.00
13850;DHT22;6995;52.618;13.488;2023-07-09T13:41:13;39.00;1.00
13850;DHT22;6995;52.618;13.488;2023-07-09T13:43:43;39.10;1.00
13850;DHT22;6995;52.618;13.488;2023-07-09T13:46:09;38.80;1.00
13850;DHT22;6995;52.618;13.488;2023-07-09T13:48:36;38.90;1.00
13850;DHT22;6995;52.618;13.488;2023-07-09T13:53:39;39.60;1.00
13850;DHT22;6995;52.618;13.488;2023-07-09T13:56:04;39.70;1.00
13850;DHT22;6995;52.618;13.488;2023-07-09T13:58:30;39.80;1.00
13850;DHT22;6995;52.618;13.488;2023-07-09T14:01:08;39.90;1.00
13850;DHT22;6995;52.618;13.488;2023-07-09T14:03:37;40.00;1.00
13850;DHT22;6995;52.618;13.488;2023-07-09T14:06:03;39.90;1.00
13850;DHT22;6995;52.618;13.488;2023-07-09T14:08:29;40.10;1.00
13850;DHT22;6995;52.618;13.488;2023-07-09T14:10:55;39.90;1.00
13850;DHT22;6995;52.618;13.488;2023-07-09T14:13:23;39.80;1.00
13850;DHT22;6995;52.618;13.488;2023-07-09T14:15:49;40.40;1.00
13850;DHT22;6995;52.618;13.488;2023-07-09T14:18:20;40.40;1.00
13850;DHT22;6995;52.618;13.488;2023-07-09T14:20:47;39.80;1.00
13850;DHT22;6995;52.618;13.488;2023-07-09T14:23:14;39.70;1.00
13850;DHT22;6995;52.618;13.488;2023-07-09T14:25:41;39.60;1.00
13850;DHT22;6995;52.618;13.488;2023-07-09T14:28:21;40.10;1.00
13850;DHT22;6995;52.618;13.488;2023-07-09T14:30:48;39.60;1.00
13850;DHT22;6995;52.618;13.488;2023-07-09T14:33:18;39.70;1.00
13850;DHT22;6995;52.618;13.488;2023-07-09T14:35:48;39.90;1.00
13850;DHT22;6995;52.618;13.488;2023-07-09T14:40:44;39.70;1.00
13850;DHT22;6995;52.618;13.488;2023-07-09T14:43:11;39.40;1.00
13850;DHT22;6995;52.618;13.488;2023-07-09T14:45:37;39.20;1.00
13850;DHT22;6995;52.618;13.488;2023-07-09T14:48:09;38.80;1.00
13850;DHT22;6995;52.618;13.488;2023-07-09T14:50:34;39.30;1.00
13850;DHT22;6995;52.618;13.488;2023-07-09T14:53:00;39.40;1.00
13850;DHT22;6995;52.618;13.488;2023-07-09T14:55:26;39.50;1.00
13850;DHT22;6995;52.618;13.488;2023-07-09T14:57:51;39.90;1.00
13850;DHT22;6995;52.618;13.488;2023-07-09T15:00:19;39.70;1.00
13850;DHT22;6995;52.618;13.488;2023-07-09T15:02:47;39.20;1.00
13850;DHT22;6995;52.618;13.488;2023-07-09T15:05:26;39.30;1.00
13850;DHT22;6995;52.618;13.488;2023-07-09T15:07:52;39.80;1.00
13850;DHT22;6995;52.618;13.488;2023-07-09T15:10:24;39.60;1.00
13850;DHT22;6995;52.618;13.488;2023-07-09T15:12:58;39.50;1.00
13850;DHT22;6995;52.618;13.488;2023-07-09T15:15:29;39.20;1.00
13850;DHT22;6995;52.618;13.488;2023-07-09T15:18:09;40.00;1.00
13850;DHT22;6995;52.618;13.488;2023-07-09T15:20:35;40.30;1.00
13850;DHT22;6995;52.618;13.488;2023-07-09T15:23:02;40.10;1.00
13850;DHT22;6995;52.618;13.488;2023-07-09T15:25:29;40.10;1.00
13850;DHT22;6995;52.618;13.488;2023-07-09T15:27:56;39.10;1.00
13850;DHT22;6995;52.618;13.488;2023-07-09T15:30:24;38.90;1.00
13850;DHT22;6995;52.618;13.488;2023-07-09T15:32:50;39.60;1.00
13850;DHT22;6995;52.618;13.488;2023-07-09T15:35:18;39.80;1.00
13850;DHT22;6995;52.618;13.488;2023-07-09T15:37:45;40.50;1.00
13850;DHT22;6995;52.618;13.488;2023-07-09T15:40:19;40.60;1.00
13850;DHT22;6995;52.618;13.488;2023-07-09T15:42:47;40.70;1.00
13850;DHT22;6995;52.618;13.488;2023-07-09T15:45:17;40.60;1.00
13850;DHT22;6995;52.618;13.488;2023-07-09T15:47:44;40.70;1.00
13850;DHT22;6995;52.618;13.488;2023-07-09T15:50:22;41.10;1.00
13850;DHT22;6995;52.618;13.488;2023-07-09T15:52:49;41.10;1.00
13850;DHT22;6995;52.618;13.488;2023-07-09T15:55:18;40.80;1.00
13850;DHT22;6995;52.618;13.488;2023-07-09T15:57:49;40.50;1.00
13850;DHT22;6995;52.618;13.488;2023-07-09T16:02:45;40.40;1.00
13850;DHT22;6995;52.618;13.488;2023-07-09T16:07:50;40.90;1.00
13850;DHT22;6995;52.618;13.488;2023-07-09T16:10:17;40.60;1.00
13850;DHT22;6995;52.618;13.488;2023-07-09T16:12:43;40.00;1.00
13850;DHT22;6995;52.618;13.488;2023-07-09T16:15:12;40.10;1.00
13850;DHT22;6995;52.618;13.488;2023-07-09T16:17:46;40.40;1.00
13850;DHT22;6995;52.618;13.488;2023-07-09T16:20:14;40.40;1.00
13850;DHT22;6995;52.618;13.488;2023-07-09T16:22:42;41.00;1.00
13850;DHT22;6995;52.618;13.488;2023-07-09T16:25:19;41.10;1.00
13850;DHT22;6995;52.618;13.488;2023-07-09T16:27:46;40.90;1.00
13850;DHT22;6995;52.618;13.488;2023-07-09T16:30:30;41.10;1.00
13850;DHT22;6995;52.618;13.488;2023-07-09T16:32:57;40.80;1.00
13850;DHT22;6995;52.618;13.488;2023-07-09T16:35:26;40.80;1.00
13850;DHT22;6995;52.618;13.488;2023-07-09T16:37:52;40.70;1.00
13850;DHT22;6995;52.618;13.488;2023-07-09T16:40:25;40.60;1.00
13850;DHT22;6995;52.618;13.488;2023-07-09T16:42:52;40.20;1.00
13850;DHT22;6995;52.618;13.488;2023-07-09T16:45:20;39.80;1.00
13850;DHT22;6995;52.618;13.488;2023-07-09T16:47:46;39.70;1.00
13850;DHT22;6995;52.618;13.488;2023-07-09T16:50:16;39.20;1.00
13850;DHT22;6995;52.618;13.488;2023-07-09T16:52:42;39.00;1.00